Terminal Aerodrome Forecast
Issued by NWS Sterling, VA

Current Version | Previous Version | Graphics & Text | Print | Product List | Glossary On
Versions: 1 2 3 4 5 6 7 8 9 10 11 12 13 14 15 16 17 18 19 20 21 22 23 24 25 26 27
000
FTUS41 KLWX 051742
TAFIAD
TAF
KIAD 051742Z 0518/0624 14005KT P6SM BKN020 OVC050
     FM052200 VRB04KT P6SM BKN040
     FM060500 VRB03KT 5SM BR VCSH SCT020 BKN060
     FM060900 VRB03KT 3SM -SHRA SCT007 BKN025
     FM061300 14006KT P6SM BKN040
     FM061900 15007KT P6SM -SHRA VCTS BKN050CB=

USA.gov is the U.S. government's official web portal to all federal, state and local government web resources and services.